Kyles Ford, Tennessee
Current Conditions -  °F | °C
As of 5:55 AM on Wednesday 22 Oct 2014 (Local Time) from K0VG Reporting Station
Scattered Clouds Scattered Clouds  
Wind Chill: 42°   Ceiling: Unl
Heat Index: 45°   Visibility: 10mi
Dew Point: 39°   Wind: 5mph
Humidity: 81%   Direction: 330°NNW
Pressure: 30.16"   Gusts: NA
Location:  36.57°N, 83.04°W
Report Text: K0VG 220955Z AUTO 33004KT 10SM SCT041 07/04 A3016 RMK AO2
Loading
Personal Weather Stations






























Interactive Weather Map
Tropical Storm Tracking
New forecast layout! Learn more

10-Day Weather Forecast

Advertisements
Track Severe Weather on mobile